• Join FlightAware (Why Join?)
  • Login
  • US Flag 
02:36AM EDT


 

Airport Tracker/Info


-or-


 

Live Flight TrackerFlight Track Log ✈ N561EJ ✈ 23-Apr-2013 ✈ KMOB - KOKC

Flight Track Log - Related Links

Times and Time Zones

All times are in EDT time to prevent confusion due to time zone crossing. See the N561EJ flight status page for this flight to view local times or setup timezone preferences in your user account.

Time Position Orientation Groundspeed Altitude Reporting Facility
EDT Latitude Longitude Course Direction KTS MPH feet Rate Location/Type
07:57AM 30.6664 -88.2219 319° Northwest 186 214 1,600  Level Houston Center
07:58AM 30.6750 -88.1694 79° East 233 268 4,900 2,880 Climbing Houston Center
07:59AM 30.7281 -88.1894 342° North 224 258 7,500 2,580 Climbing Houston Center
08:00AM 30.7947 -88.2425 326° Northwest 238 274 10,300 2,340 Climbing Houston Center
08:01AM 30.8544 -88.2875 327° Northwest 250 288 12,400 2,040 Climbing Houston Center
08:02AM 31.0663 -88.4663 319° Northwest  Level FlightAware Approximate
08:02AM 30.9167 -88.3375 325° Northwest 267 307 14,500  Level Houston Center
08:03AM 30.9794 -88.3892 325° Northwest 272 313 16,500 1,800 Climbing Houston Center
08:04AM 31.0425 -88.4400 325° Northwest 272 313 18,300 1,860 Climbing Houston Center
08:05AM 31.1022 -88.4936 322° Northwest 271 312 20,400 1,920 Climbing Houston Center
08:06AM 31.1411 -88.5667 302° West 265 305 22,300 1,860 Climbing Houston Center
08:07AM 31.1792 -88.6381 302° West 260 299 24,300 1,800 Climbing Houston Center
08:08AM 31.2156 -88.7069 302° West 253 291 26,100 1,620 Climbing Houston Center
08:09AM 31.2528 -88.7761 302° West 252 290 27,700 1,500 Climbing Houston Center
08:10AM 31.3122 -88.8261 324° Northwest 266 306 29,200 1,500 Climbing Houston Center
08:11AM 31.3719 -88.8753 325° Northwest 262 302 30,800 1,260 Climbing Houston Center
08:12AM 31.4453 -88.9361 325° Northwest 268 308 31,900 540 Climbing Houston Center
08:13AM 31.5108 -88.9961 322° Northwest 293 337 32,000 420 Climbing Houston Center
08:14AM 31.5739 -89.0736 314° West 329 379 32,800 840 Climbing Houston Center
08:15AM 31.6192 -89.1617 301° West 319 367 33,800 1,020 Climbing Houston Center
08:16AM 31.6500 -89.2350 296° West 316 364 34,700 1,020 Climbing Memphis Center
08:17AM 31.6969 -89.3197 303° West 316 364 35,700 960 Climbing Memphis Center
08:18AM 31.7392 -89.4072 300° West 311 358 36,700 960 Climbing Memphis Center
08:18AM 31.7436 -89.4233 288° West 302 348 36,900 1,020 Climbing Houston Center
08:19AM 31.7836 -89.5072 299° West 296 341 38,000 1,020 Climbing Houston Center
08:20AM 31.8283 -89.6003 300° West 276 318 39,100 780 Climbing Houston Center
08:21AM 31.8514 -89.6433 302° West 282 325 39,400 480 Climbing Memphis Center
08:22AM 31.8875 -89.7214 299° West 277 319 40,000 300 Climbing Memphis Center
08:23AM 31.9253 -89.7992 300° West 270 311 40,000  Level Memphis Center
08:24AM 31.9633 -89.8800 299° West 270 311 40,000  Level Memphis Center
08:25AM 32.0033 -89.9653 299° West 281 323 40,000  Level Memphis Center
08:26AM 32.0411 -90.0511 297° West 286 329 40,000  Level Memphis Center
08:27AM 32.0808 -90.1392 298° West 300 345 40,000  Level Memphis Center
08:28AM 32.1250 -90.2272 301° West 307 353 40,000  Level Memphis Center
08:29AM 32.1647 -90.3156 298° West 307 353 40,000  Level Memphis Center
08:30AM 32.2064 -90.4039 299° West 307 353 40,000  Level Memphis Center
08:31AM 32.2481 -90.4950 298° West 307 353 40,000  Level Memphis Center
08:32AM 32.2875 -90.5858 297° West 307 353 40,000  Level Memphis Center
08:33AM 32.3292 -90.6744 299° West 307 353 40,000  Level Memphis Center
08:34AM 32.3728 -90.7681 299° West 307 353 40,000  Level Memphis Center
08:35AM 32.4183 -90.8717 298° West 307 353 40,000  Level Memphis Center
08:36AM 32.4597 -90.9606 299° West 312 359 40,000  Level Memphis Center
08:37AM 32.5031 -91.0519 299° West 312 359 40,000  Level Memphis Center
08:39AM 32.5950 -91.2544 298° West 328 377 40,000  Level Fort Worth Center
08:40AM 32.6372 -91.3503 298° West 328 377 40,000  Level Fort Worth Center
08:41AM 32.6792 -91.4436 298° West 323 372 40,000  Level Fort Worth Center
08:42AM 32.7233 -91.5369 299° West 323 372 40,000  Level Fort Worth Center
08:43AM 32.7650 -91.6306 298° West 323 372 40,000  Level Fort Worth Center
08:44AM 32.8069 -91.7242 298° West 323 372 40,000  Level Fort Worth Center
08:45AM 32.8394 -91.7986 297° West 323 372 40,000  Level Fort Worth Center
08:46AM 32.8919 -91.8994 302° West 323 372 40,000  Level Fort Worth Center
08:47AM 32.9336 -91.9933 298° West 323 372 40,000  Level Fort Worth Center
08:48AM 32.9753 -92.0872 298° West 318 366 40,000  Level Fort Worth Center
08:49AM 33.0169 -92.1839 297° West 318 366 40,000  Level Fort Worth Center
08:50AM 33.0583 -92.2781 298° West 318 366 40,000  Level Fort Worth Center
08:51AM 33.0997 -92.3750 297° West 318 366 40,000  Level Fort Worth Center
08:52AM 33.1433 -92.4717 298° West 318 366 40,000  Level Fort Worth Center
08:53AM 33.1847 -92.5686 297° West 323 372 40,000  Level Fort Worth Center
08:54AM 33.2258 -92.6631 298° West 323 372 40,000  Level Fort Worth Center
08:55AM 33.2628 -92.7581 295° West 323 372 40,000  Level Fort Worth Center
08:56AM 33.2833 -92.8639 283° West 323 372 40,000  Level Fort Worth Center
08:57AM 33.3036 -92.9672 283° West 323 372 40,000  Level Fort Worth Center
08:58AM 33.3242 -93.0731 283° West 323 372 40,000  Level Fort Worth Center
08:59AM 33.3464 -93.1764 284° West 323 372 40,000  Level Fort Worth Center
09:00AM 33.3644 -93.2800 282° West 323 372 40,000  Level Fort Worth Center
09:01AM 33.3867 -93.3833 284° West 328 377 40,000  Level Fort Worth Center
09:02AM 33.4047 -93.4894 282° West 328 377 40,000  Level Fort Worth Center
09:03AM 33.4267 -93.5931 284° West 328 377 40,000  Level Fort Worth Center
09:04AM 33.4464 -93.6967 283° West 328 377 40,000  Level Fort Worth Center
09:05AM 33.4703 -93.8003 285° West 328 377 40,000  Level Fort Worth Center
09:06AM 33.4861 -93.9117 280° West 333 383 40,000  Level Fort Worth Center
09:07AM 33.5100 -94.0303 284° West 333 383 40,000  Level Fort Worth Center
09:08AM 33.5397 -94.1289 290° West 333 383 40,000  Level Fort Worth Center
09:09AM 33.5842 -94.2244 299° West 327 376 40,000  Level Fort Worth Center
09:10AM 33.6239 -94.3203 296° West 327 376 40,000  Level Fort Worth Center
09:11AM 33.6661 -94.4161 298° West 327 376 40,000  Level Fort Worth Center
09:12AM 33.7081 -94.5144 297° West 327 376 40,000  Level Fort Worth Center
09:13AM 33.7497 -94.6106 298° West 327 376 40,000  Level Fort Worth Center
09:14AM 33.7917 -94.7092 297° West 327 376 40,000  Level Fort Worth Center
09:15AM 33.8356 -94.8078 298° West 327 376 40,000  Level Fort Worth Center
09:16AM 33.8769 -94.9042 297° West 327 376 40,000  Level Fort Worth Center
09:17AM 33.9186 -95.0031 297° West 327 376 40,000  Level Fort Worth Center
09:18AM 33.9622 -95.0997 299° West 327 376 40,000  Level Fort Worth Center
09:19AM 34.0058 -95.1986 298° West 327 376 40,000 -360 Level Fort Worth Center
09:20AM 34.0469 -95.2978 297° West 327 376 39,300 -1,020 Descending Fort Worth Center
09:21AM 34.0883 -95.3897 299° West 332 382 38,000 -1,500 Descending Fort Worth Center
09:22AM 34.1317 -95.4939 297° West 343 395 36,400 -1,680 Descending Fort Worth Center
09:23AM 34.1728 -95.6011 295° West 343 395 34,700 -1,680 Descending Fort Worth Center
09:24AM 34.2161 -95.7056 297° West 343 395 33,100 -1,620 Descending Fort Worth Center
09:25AM 34.2633 -95.8153 298° West 353 406 31,500 -1,680 Descending Fort Worth Center
09:26AM 34.3086 -95.9225 297° West 358 412 29,800 -1,680 Descending Fort Worth Center
09:27AM 34.3536 -96.0300 297° West 364 419 28,200 -1,620 Descending Fort Worth Center
09:28AM 34.3797 -96.1453 285° West 358 412 26,600 -1,680 Descending Fort Worth Center
09:29AM 34.4058 -96.2556 286° West 345 397 24,900 -1,680 Descending Fort Worth Center
09:30AM 34.4297 -96.3661 285° West 345 397 23,300 -1,620 Descending Fort Worth Center
09:31AM 34.4558 -96.4742 286° West 339 390 21,700 -1,680 Descending Fort Worth Center
09:32AM 34.4981 -96.5744 297° West 334 384 20,000 -1,800 Descending Fort Worth Center
09:33AM 34.5531 -96.6697 305° West 334 384 18,100 -1,920 Descending Fort Worth Center
09:34AM 34.6056 -96.7653 304° West 334 384 16,200 -1,740 Descending Fort Worth Center
09:35AM 34.6519 -96.8531 303° West 334 384 14,700 -1,620 Descending Fort Worth Center
09:36AM 34.6961 -96.9439 301° West 324 373 13,000 -1,860 Descending Fort Worth Center
09:37AM 34.7256 -96.9967 304° West 309 356 12,000 -1,560 Descending Fort Worth Center
09:37AM 34.7467 -97.0369 303° West 309 356 11,500 -1,140 Descending Fort Worth Center
09:38AM 34.7906 -97.1228 302° West 295 339 10,300 -1,440 Descending Fort Worth Center
09:39AM 34.8408 -97.1908 312° West 279 321 8,700 -1,560 Descending Fort Worth Center
09:40AM 34.8931 -97.2489 318° Northwest 280 322 7,200 -1,380 Descending Fort Worth Center
09:41AM 34.9494 -97.3147 316° Northwest 253 291 6,000 -1,320 Descending Fort Worth Center
09:42AM 34.9933 -97.3678 315° West 251 289 4,600 -960 Descending Fort Worth Center
09:43AM 35.0328 -97.4364 305° West 251 289 4,100 -300 Descending Fort Worth Center
09:44AM 35.0744 -97.5022 308° West 246 283 4,100  Level Fort Worth Center
09:45AM 35.1244 -97.5608 316° Northwest 246 283 4,100 -600 Level Fort Worth Center
09:46AM 35.1808 -97.5889 338° Northwest 238 274 3,000 -600 Descending Fort Worth Center
09:47AM 35.2225 -97.5914 357° North 187 215 3,000  Level Fort Worth Center
09:48AM 35.2581 -97.5889 North 147 169 3,000 -60 Level Fort Worth Center
09:49AM 35.2956 -97.5892 360° North 137 158 2,900 -300 Descending Fort Worth Center
09:50AM 35.3247 -97.5892 360° North 118 136 2,400 -600 Descending Fort Worth Center
09:51AM 35.3561 -97.5917 356° North 104 120 1,800 -600 Descending Fort Worth Center
09:53AM 35.3833 -97.6000 North  Level FlightAware Approximate
10:00AM 35.3931 -97.6008 North  Level Estimated